createdAt,value
2018-09-24T00:00:34.617Z,0.00
2018-09-24T00:01:34.581Z,0.00
2018-09-24T00:02:34.632Z,0.00
2018-09-24T00:03:34.496Z,0.00
2018-09-24T00:04:34.476Z,0.00
2018-09-24T00:05:34.423Z,0.00
2018-09-24T00:06:34.364Z,0.00
2018-09-24T00:07:34.316Z,0.00
2018-09-24T00:08:34.377Z,0.00
2018-09-24T00:09:34.225Z,0.00
2018-09-24T00:10:34.175Z,0.00
2018-09-24T00:11:34.134Z,0.00
2018-09-24T00:12:34.099Z,0.00
2018-09-24T00:13:34.037Z,0.00
2018-09-24T00:14:34.099Z,0.00
2018-09-24T00:15:33.937Z,0.00
2018-09-24T00:16:33.911Z,0.00
2018-09-24T00:17:33.856Z,0.00
2018-09-24T00:18:33.812Z,0.00
2018-09-24T00:19:33.773Z,0.00
2018-09-24T00:20:33.824Z,0.00
2018-09-24T00:21:33.697Z,0.00
2018-09-24T00:22:33.661Z,0.00
2018-09-24T00:23:33.623Z,0.00
2018-09-24T00:24:33.558Z,0.00
2018-09-24T00:25:33.507Z,0.00
2018-09-24T00:26:33.565Z,0.00
2018-09-24T00:27:33.422Z,0.00
2018-09-24T00:28:33.360Z,0.00
2018-09-24T00:29:33.316Z,0.00
2018-09-24T00:30:33.279Z,0.00
2018-09-24T00:31:33.226Z,0.00
2018-09-24T00:32:33.291Z,0.00
2018-09-24T00:33:33.159Z,0.00
2018-09-24T00:34:33.105Z,0.00
2018-09-24T00:35:33.065Z,0.00
2018-09-24T00:36:33.020Z,0.00
2018-09-24T00:37:32.970Z,0.00
2018-09-24T00:38:33.038Z,0.00
2018-09-24T00:39:32.876Z,0.00
2018-09-24T00:40:32.831Z,0.00
2018-09-24T00:41:32.793Z,0.00
2018-09-24T00:42:32.766Z,0.00
2018-09-24T00:43:32.747Z,0.00
2018-09-24T00:44:32.752Z,0.00
2018-09-24T00:45:32.614Z,0.00
2018-09-24T00:46:32.575Z,0.00
2018-09-24T00:47:32.513Z,0.00
2018-09-24T00:48:32.520Z,0.00
2018-09-24T00:49:32.445Z,0.00
2018-09-24T00:50:32.516Z,0.00
2018-09-24T00:51:32.363Z,0.00
2018-09-24T00:52:32.321Z,0.00
2018-09-24T00:53:32.254Z,0.00
2018-09-24T00:54:32.225Z,0.00
2018-09-24T00:55:32.161Z,0.00
2018-09-24T00:56:32.210Z,0.00
2018-09-24T00:57:32.071Z,0.00
2018-09-24T00:58:32.049Z,0.00
2018-09-24T00:59:31.981Z,0.00
2018-09-24T01:00:31.942Z,0.00
2018-09-24T01:01:31.895Z,0.00
2018-09-24T01:02:31.948Z,0.00
2018-09-24T01:03:31.808Z,0.00
2018-09-24T01:04:31.768Z,0.00
2018-09-24T01:05:31.729Z,0.00
2018-09-24T01:06:31.662Z,0.00
2018-09-24T01:07:31.619Z,0.00
2018-09-24T01:08:31.679Z,0.00
2018-09-24T01:09:31.534Z,0.00
2018-09-24T01:10:31.498Z,0.00
2018-09-24T01:11:31.456Z,0.00
2018-09-24T01:12:31.396Z,0.00
2018-09-24T01:13:31.362Z,0.00
2018-09-24T01:14:31.425Z,0.00
2018-09-24T01:15:31.261Z,0.00
2018-09-24T01:16:31.215Z,0.00
2018-09-24T01:17:31.188Z,0.00
2018-09-24T01:18:31.146Z,0.00
2018-09-24T01:19:31.091Z,0.00
2018-09-24T01:20:31.152Z,0.00
2018-09-24T01:21:31.000Z,0.00
2018-09-24T01:22:30.984Z,0.00
2018-09-24T01:23:30.906Z,0.00
2018-09-24T01:24:30.873Z,0.00
2018-09-24T01:25:30.842Z,0.00
2018-09-24T01:26:30.912Z,0.00
2018-09-24T01:27:30.727Z,0.00
2018-09-24T01:28:30.692Z,0.00
2018-09-24T01:29:30.636Z,0.00
2018-09-24T01:30:30.606Z,0.00
2018-09-24T01:31:30.554Z,0.00
2018-09-24T01:32:30.626Z,0.00
2018-09-24T01:33:30.489Z,0.00
2018-09-24T01:34:30.408Z,0.00
2018-09-24T01:35:30.378Z,0.00
2018-09-24T01:36:30.331Z,0.00
2018-09-24T01:37:30.286Z,0.00
2018-09-24T01:38:30.339Z,0.00
2018-09-24T01:39:30.190Z,0.00
2018-09-24T01:40:30.145Z,0.00
2018-09-24T01:41:30.102Z,0.00
2018-09-24T01:42:30.055Z,0.00
2018-09-24T01:43:30.017Z,0.00
2018-09-24T01:44:30.067Z,0.00
2018-09-24T01:45:29.953Z,0.00
2018-09-24T01:46:29.876Z,0.00
2018-09-24T01:47:29.853Z,0.00
2018-09-24T01:48:29.786Z,0.00
2018-09-24T01:49:29.741Z,0.00
2018-09-24T01:50:29.808Z,0.00
2018-09-24T01:51:29.649Z,0.00
2018-09-24T01:52:29.616Z,0.00
2018-09-24T01:53:29.571Z,0.00
2018-09-24T01:54:29.555Z,0.00
2018-09-24T01:55:29.471Z,0.00
2018-09-24T01:56:29.532Z,0.00
2018-09-24T01:57:29.396Z,0.00
2018-09-24T01:58:29.338Z,0.00
2018-09-24T01:59:29.302Z,0.00
2018-09-24T02:00:29.247Z,0.00
2018-09-24T02:01:29.221Z,0.00
2018-09-24T02:02:29.263Z,0.00
2018-09-24T02:03:29.111Z,0.00
2018-09-24T02:04:29.068Z,0.00
2018-09-24T02:05:29.036Z,0.00
2018-09-24T02:06:28.982Z,0.00
2018-09-24T02:07:28.943Z,0.00
2018-09-24T02:08:28.994Z,0.00
2018-09-24T02:09:28.866Z,0.00
2018-09-24T02:10:28.797Z,0.00
2018-09-24T02:11:28.740Z,0.00
2018-09-24T02:12:28.704Z,0.00
2018-09-24T02:13:28.693Z,0.00
2018-09-24T02:14:28.722Z,0.00
2018-09-24T02:15:28.581Z,0.00
2018-09-24T02:16:28.534Z,0.00
2018-09-24T02:17:28.510Z,0.00
2018-09-24T02:18:28.441Z,0.00
2018-09-24T02:19:28.394Z,0.00
2018-09-24T02:20:28.459Z,0.00
2018-09-24T02:21:28.326Z,0.00
2018-09-24T02:22:28.262Z,0.00
2018-09-24T02:23:28.204Z,0.00
2018-09-24T02:24:28.168Z,0.00
2018-09-24T02:25:28.118Z,0.00
2018-09-24T02:26:28.478Z,0.00
2018-09-24T02:27:28.038Z,0.00
2018-09-24T02:28:27.995Z,0.00
2018-09-24T02:29:27.938Z,0.00
2018-09-24T02:30:27.905Z,0.00
2018-09-24T02:31:27.837Z,0.00
2018-09-24T02:32:27.909Z,0.00
2018-09-24T02:33:27.751Z,0.00
2018-09-24T02:34:27.706Z,0.00
2018-09-24T02:35:27.667Z,0.00
2018-09-24T02:36:27.653Z,0.00
2018-09-24T02:37:27.581Z,0.00
2018-09-24T02:38:27.638Z,0.00
2018-09-24T02:39:27.482Z,0.00
2018-09-24T02:40:27.453Z,0.00
2018-09-24T02:41:27.392Z,0.00
2018-09-24T02:42:27.365Z,0.00
2018-09-24T02:43:27.319Z,0.00
2018-09-24T02:44:27.361Z,0.00
2018-09-24T02:45:27.213Z,0.00
2018-09-24T02:46:27.187Z,0.00
2018-09-24T02:47:27.132Z,0.00
2018-09-24T02:48:27.087Z,0.00
2018-09-24T02:49:27.036Z,0.00
2018-09-24T02:50:27.102Z,0.00
2018-09-24T02:51:26.957Z,0.00
2018-09-24T02:52:26.893Z,0.00
2018-09-24T02:53:26.881Z,0.00
2018-09-24T02:54:26.812Z,0.00
2018-09-24T02:55:26.768Z,0.00
2018-09-24T02:56:26.811Z,0.00
2018-09-24T02:57:26.666Z,0.00
2018-09-24T02:58:26.654Z,0.00
2018-09-24T02:59:26.589Z,0.00
2018-09-24T03:00:26.541Z,0.00
2018-09-24T03:01:26.534Z,0.00
2018-09-24T03:02:26.558Z,0.00
2018-09-24T03:03:26.406Z,0.00
2018-09-24T03:04:26.364Z,0.00
2018-09-24T03:05:26.324Z,0.00
2018-09-24T03:06:26.264Z,0.00
2018-09-24T03:07:26.230Z,0.00
2018-09-24T03:08:26.280Z,0.00
2018-09-24T03:09:26.142Z,0.00
2018-09-24T03:10:26.088Z,0.00
2018-09-24T03:11:26.048Z,0.00
2018-09-24T03:12:26.011Z,0.00
2018-09-24T03:13:25.947Z,0.00
2018-09-24T03:14:25.993Z,0.00
2018-09-24T03:15:25.857Z,0.00
2018-09-24T03:16:25.838Z,0.00
2018-09-24T03:17:25.781Z,0.00
2018-09-24T03:18:25.752Z,0.00
2018-09-24T03:19:25.675Z,0.00
2018-09-24T03:20:25.724Z,0.00
2018-09-24T03:21:25.617Z,0.00
2018-09-24T03:22:25.553Z,0.00
2018-09-24T03:23:25.494Z,0.00
2018-09-24T03:24:25.453Z,0.00
2018-09-24T03:25:25.402Z,0.00
2018-09-24T03:26:25.531Z,0.00
2018-09-24T03:27:25.345Z,0.00
2018-09-24T03:28:25.290Z,0.00
2018-09-24T03:29:25.236Z,0.00
2018-09-24T03:30:25.176Z,0.00
2018-09-24T03:31:25.152Z,0.00
2018-09-24T03:32:25.183Z,0.00
2018-09-24T03:33:25.045Z,0.00
2018-09-24T03:34:25.002Z,0.00
2018-09-24T03:35:24.961Z,0.00
2018-09-24T03:36:24.904Z,0.00
2018-09-24T03:37:24.861Z,0.00
2018-09-24T03:38:24.920Z,0.00
2018-09-24T03:39:24.774Z,0.00
2018-09-24T03:40:24.749Z,0.00
2018-09-24T03:41:24.689Z,0.00
2018-09-24T03:42:24.647Z,0.00
2018-09-24T03:43:24.591Z,0.00
2018-09-24T03:44:24.651Z,0.00
2018-09-24T03:45:24.529Z,0.00
2018-09-24T03:46:24.449Z,0.00
2018-09-24T03:47:24.415Z,0.00
2018-09-24T03:48:24.371Z,0.00
2018-09-24T03:49:24.321Z,0.00
2018-09-24T03:50:24.366Z,0.00
2018-09-24T03:51:24.227Z,0.00
2018-09-24T03:52:24.180Z,0.00
2018-09-24T03:53:24.173Z,0.00
2018-09-24T03:54:24.093Z,0.00
2018-09-24T03:55:24.049Z,0.00
2018-09-24T03:56:24.099Z,0.00
2018-09-24T03:57:23.959Z,0.00
2018-09-24T03:58:23.944Z,0.00
2018-09-24T03:59:23.868Z,0.00
2018-09-24T04:00:23.811Z,0.00
2018-09-24T04:01:23.766Z,0.00
2018-09-24T04:02:23.824Z,0.00
2018-09-24T04:03:23.671Z,0.00
2018-09-24T04:04:23.629Z,0.00
2018-09-24T04:05:23.576Z,0.00
2018-09-24T04:06:23.567Z,0.00
2018-09-24T04:07:23.492Z,0.00
2018-09-24T04:08:23.551Z,0.00
2018-09-24T04:09:23.397Z,0.00
2018-09-24T04:10:23.364Z,0.00
2018-09-24T04:11:23.309Z,0.00
2018-09-24T04:12:23.272Z,0.00
2018-09-24T04:13:23.228Z,0.00
2018-09-24T04:14:23.265Z,0.00
2018-09-24T04:15:23.128Z,0.00
2018-09-24T04:16:23.091Z,0.00
2018-09-24T04:17:23.043Z,0.00
2018-09-24T04:18:22.997Z,0.00
2018-09-24T04:19:22.975Z,0.00
2018-09-24T04:20:23.007Z,0.00
2018-09-24T04:21:22.866Z,0.00
2018-09-24T04:22:22.804Z,0.00
2018-09-24T04:23:22.763Z,0.00
2018-09-24T04:24:22.712Z,0.00
2018-09-24T04:25:22.677Z,0.00
2018-09-24T04:26:22.824Z,0.00
2018-09-24T04:27:22.590Z,0.00
2018-09-24T04:28:22.549Z,0.00
2018-09-24T04:29:22.482Z,0.00
2018-09-24T04:30:22.440Z,0.00
2018-09-24T04:31:22.405Z,0.00
2018-09-24T04:32:22.457Z,0.00
2018-09-24T04:33:22.307Z,0.00
2018-09-24T04:34:22.257Z,0.00
2018-09-24T04:35:22.221Z,0.00
2018-09-24T04:36:22.175Z,0.00
2018-09-24T04:37:22.136Z,0.00
2018-09-24T04:38:22.198Z,0.00
2018-09-24T04:39:22.052Z,0.00
2018-09-24T04:40:21.987Z,0.00
2018-09-24T04:41:21.947Z,0.00
2018-09-24T04:42:21.902Z,0.00
2018-09-24T04:43:21.861Z,0.00
2018-09-24T04:44:21.929Z,0.00
2018-09-24T04:45:21.767Z,0.00
2018-09-24T04:46:21.716Z,0.00
2018-09-24T04:47:21.678Z,0.00
2018-09-24T04:48:21.643Z,0.00
2018-09-24T04:49:21.593Z,0.00
2018-09-24T04:50:21.658Z,0.00
2018-09-24T04:51:21.498Z,0.00
2018-09-24T04:52:21.461Z,0.00
2018-09-24T04:53:21.404Z,0.00
2018-09-24T04:54:21.372Z,0.00
2018-09-24T04:55:21.319Z,0.00
2018-09-24T04:56:21.363Z,0.00
2018-09-24T04:57:21.226Z,0.00
2018-09-24T04:58:21.173Z,0.00
2018-09-24T04:59:21.131Z,0.00
2018-09-24T05:00:21.086Z,0.00
2018-09-24T05:01:21.155Z,0.00
2018-09-24T05:02:20.985Z,0.00
2018-09-24T05:03:20.951Z,0.00
2018-09-24T05:04:20.906Z,0.00
2018-09-24T05:05:20.854Z,0.00
2018-09-24T05:06:20.835Z,0.00
2018-09-24T05:07:20.864Z,0.00
2018-09-24T05:08:20.712Z,0.00
2018-09-24T05:09:20.667Z,0.00
2018-09-24T05:10:20.727Z,0.00
2018-09-24T05:11:20.582Z,0.00
2018-09-24T05:12:20.536Z,0.00
2018-09-24T05:13:20.602Z,0.00
2018-09-24T05:14:20.441Z,0.00
2018-09-24T05:15:20.393Z,0.00
2018-09-24T05:16:20.399Z,0.00
2018-09-24T05:17:20.297Z,0.00
2018-09-24T05:18:20.272Z,0.00
2018-09-24T05:19:20.303Z,0.00
2018-09-24T05:20:20.165Z,0.00
2018-09-24T05:21:20.118Z,0.00
2018-09-24T05:22:20.075Z,0.00
2018-09-24T05:23:20.033Z,0.00
2018-09-24T05:24:19.974Z,0.00
2018-09-24T05:25:20.035Z,0.00
2018-09-24T05:26:19.884Z,0.00
2018-09-24T05:27:19.903Z,0.00
2018-09-24T05:28:19.798Z,0.00
2018-09-24T05:29:19.757Z,0.00
2018-09-24T05:30:19.691Z,0.00
2018-09-24T05:31:19.760Z,0.00
2018-09-24T05:32:19.649Z,0.00
2018-09-24T05:33:19.555Z,0.00
2018-09-24T05:34:19.584Z,0.00
2018-09-24T05:35:19.479Z,0.00
2018-09-24T05:36:19.418Z,0.00
2018-09-24T05:37:19.504Z,0.00
2018-09-24T05:38:19.345Z,0.00
2018-09-24T05:39:19.291Z,0.00
2018-09-24T05:40:19.240Z,0.00
2018-09-24T05:41:19.260Z,0.00
2018-09-24T05:42:19.147Z,0.00
2018-09-24T05:43:19.201Z,0.00
2018-09-24T05:44:19.055Z,0.00
2018-09-24T05:45:19.041Z,0.00
2018-09-24T05:46:18.973Z,0.00
2018-09-24T05:47:18.915Z,0.00
2018-09-24T05:48:18.877Z,0.00
2018-09-24T05:49:18.938Z,0.00
2018-09-24T05:50:18.785Z,0.00
2018-09-24T05:51:18.740Z,0.00
2018-09-24T05:52:18.693Z,0.00
2018-09-24T05:53:18.635Z,0.00
2018-09-24T05:54:18.635Z,0.00
2018-09-24T05:55:18.672Z,0.00
2018-09-24T05:56:18.496Z,0.00
2018-09-24T05:57:18.476Z,0.00
2018-09-24T05:58:18.412Z,0.00
2018-09-24T05:59:18.362Z,0.00
2018-09-24T06:00:18.327Z,0.00
2018-09-24T06:01:18.368Z,0.00
2018-09-24T06:02:18.220Z,0.00
2018-09-24T06:03:18.185Z,0.00
2018-09-24T06:04:18.156Z,0.00
2018-09-24T06:05:18.086Z,0.00
2018-09-24T06:06:18.065Z,0.00
2018-09-24T06:07:18.120Z,0.00
2018-09-24T06:08:17.950Z,0.00
2018-09-24T06:09:17.899Z,0.00
2018-09-24T06:10:17.872Z,0.00
2018-09-24T06:11:17.823Z,0.00
2018-09-24T06:12:17.766Z,0.00
2018-09-24T06:13:17.814Z,0.00
2018-09-24T06:14:17.669Z,0.00
2018-09-24T06:15:17.640Z,0.00
2018-09-24T06:16:17.588Z,0.00
2018-09-24T06:17:17.547Z,0.00
2018-09-24T06:18:17.491Z,0.00
2018-09-24T06:19:17.551Z,0.00
2018-09-24T06:20:17.420Z,0.00
2018-09-24T06:21:17.353Z,0.00
2018-09-24T06:22:17.306Z,0.00
2018-09-24T06:23:17.265Z,0.00
2018-09-24T06:24:17.223Z,0.00
2018-09-24T06:25:17.273Z,0.00
2018-09-24T06:26:17.142Z,0.00
2018-09-24T06:27:17.077Z,0.00
2018-09-24T06:28:17.064Z,0.00
2018-09-24T06:29:17.028Z,0.00
2018-09-24T06:30:16.956Z,0.00
2018-09-24T06:31:17.013Z,0.00
2018-09-24T06:32:16.853Z,0.00
2018-09-24T06:33:16.826Z,0.00
2018-09-24T06:34:16.772Z,0.00
2018-09-24T06:35:16.708Z,0.00
2018-09-24T06:36:16.675Z,0.00
2018-09-24T06:37:16.713Z,0.00
2018-09-24T06:38:16.581Z,0.00
2018-09-24T06:39:16.560Z,0.00
2018-09-24T06:40:16.472Z,0.00
2018-09-24T06:41:16.537Z,0.00
2018-09-24T06:42:16.384Z,0.00
2018-09-24T06:43:16.444Z,0.00
2018-09-24T06:44:16.295Z,0.00
2018-09-24T06:45:16.264Z,0.00
2018-09-24T06:46:16.217Z,0.00
2018-09-24T06:47:16.176Z,0.00
2018-09-24T06:48:16.130Z,0.00
2018-09-24T06:49:16.174Z,0.00
2018-09-24T06:50:16.013Z,0.00
2018-09-24T06:51:15.984Z,0.00
2018-09-24T06:52:15.939Z,0.00
2018-09-24T06:53:15.890Z,0.00
2018-09-24T06:54:15.853Z,0.00
2018-09-24T06:55:15.917Z,0.00
2018-09-24T06:56:15.740Z,0.00
2018-09-24T06:57:15.714Z,0.00
2018-09-24T06:58:15.652Z,0.00
2018-09-24T06:59:15.608Z,0.00
2018-09-24T07:00:15.569Z,0.00
2018-09-24T07:01:15.614Z,0.00
2018-09-24T07:02:15.471Z,0.00
2018-09-24T07:03:15.431Z,0.00
2018-09-24T07:04:15.373Z,0.00
2018-09-24T07:05:15.389Z,0.00
2018-09-24T07:06:15.282Z,0.00
2018-09-24T07:07:15.333Z,0.00
2018-09-24T07:08:15.212Z,0.00
2018-09-24T07:09:15.147Z,0.00
2018-09-24T07:10:15.110Z,0.00
2018-09-24T07:11:15.073Z,0.00
2018-09-24T07:12:15.130Z,0.00
2018-09-24T07:13:14.953Z,0.00
2018-09-24T07:14:14.914Z,0.00
2018-09-24T07:15:14.875Z,0.00
2018-09-24T07:16:14.849Z,0.00
2018-09-24T07:17:14.792Z,0.00
2018-09-24T07:18:14.832Z,0.00
2018-09-24T07:19:14.743Z,0.00
2018-09-24T07:20:14.633Z,0.00
2018-09-24T07:21:14.599Z,0.00
2018-09-24T07:22:14.562Z,0.00
2018-09-24T07:23:14.499Z,0.00
2018-09-24T07:24:14.561Z,0.00
2018-09-24T07:25:14.411Z,0.00
2018-09-24T07:26:14.377Z,0.00
2018-09-24T07:27:14.314Z,0.00
2018-09-24T07:28:14.289Z,0.00
2018-09-24T07:29:14.228Z,0.00
2018-09-24T07:30:14.283Z,0.00
2018-09-24T07:31:14.128Z,0.00
2018-09-24T07:32:14.108Z,0.00
2018-09-24T07:33:14.111Z,0.00
2018-09-24T07:34:13.997Z,0.00
2018-09-24T07:35:13.949Z,0.00
2018-09-24T07:36:14.007Z,0.00
2018-09-24T07:37:13.855Z,0.00
2018-09-24T07:38:13.806Z,0.00
2018-09-24T07:39:13.780Z,0.00
2018-09-24T07:40:13.704Z,0.00
2018-09-24T07:41:13.675Z,0.00
2018-09-24T07:42:13.731Z,0.00
2018-09-24T07:43:13.813Z,0.00
2018-09-24T07:44:13.515Z,0.00
2018-09-24T07:45:13.501Z,0.00
2018-09-24T07:46:13.433Z,0.00
2018-09-24T07:47:13.397Z,0.00
2018-09-24T07:48:13.461Z,0.00
2018-09-24T07:49:13.314Z,0.00
2018-09-24T07:50:13.253Z,0.00
2018-09-24T07:51:13.210Z,0.00
2018-09-24T07:52:13.151Z,0.00
2018-09-24T07:53:13.154Z,0.00
2018-09-24T07:54:13.176Z,0.00
2018-09-24T07:55:13.048Z,0.00
2018-09-24T07:56:12.985Z,0.00
2018-09-24T07:57:12.952Z,0.00
2018-09-24T07:58:12.893Z,0.00
2018-09-24T07:59:12.858Z,0.00
2018-09-24T08:00:12.884Z,0.00
2018-09-24T08:01:12.742Z,0.00
2018-09-24T08:02:12.698Z,0.00
2018-09-24T08:03:12.637Z,0.00
2018-09-24T08:04:12.603Z,0.00
2018-09-24T08:05:12.562Z,0.00
2018-09-24T08:06:12.603Z,0.00
2018-09-24T08:07:12.557Z,0.00
2018-09-24T08:08:12.423Z,0.00
2018-09-24T08:09:12.387Z,0.00
2018-09-24T08:10:12.340Z,0.00
2018-09-24T08:11:12.285Z,0.00
2018-09-24T08:12:12.343Z,0.00
2018-09-24T08:13:12.185Z,0.00
2018-09-24T08:14:12.162Z,0.00
2018-09-24T08:15:12.102Z,0.00
2018-09-24T08:16:12.044Z,0.00
2018-09-24T08:17:12.003Z,0.00
2018-09-24T08:18:12.104Z,0.00
2018-09-24T08:19:11.919Z,0.00
2018-09-24T08:20:11.885Z,0.00
2018-09-24T08:21:11.906Z,0.00
2018-09-24T08:22:11.763Z,0.00
2018-09-24T08:23:11.752Z,0.00
2018-09-24T08:24:11.786Z,0.00
2018-09-24T08:25:11.642Z,0.00
2018-09-24T08:26:11.586Z,0.00
2018-09-24T08:27:11.544Z,0.00
2018-09-24T08:28:11.515Z,0.00
2018-09-24T08:29:11.456Z,0.00
2018-09-24T08:30:11.499Z,0.00
2018-09-24T08:31:11.340Z,0.00
2018-09-24T08:32:11.318Z,0.00
2018-09-24T08:33:11.274Z,0.00
2018-09-24T08:34:11.206Z,0.00
2018-09-24T08:35:11.169Z,0.00
2018-09-24T08:36:11.310Z,0.00
2018-09-24T08:37:11.101Z,0.00
2018-09-24T08:38:11.157Z,0.00
2018-09-24T08:39:10.988Z,0.00
2018-09-24T08:40:10.947Z,0.00
2018-09-24T08:41:10.901Z,0.00
2018-09-24T08:42:10.947Z,0.00
2018-09-24T08:43:10.798Z,0.00
2018-09-24T08:44:10.804Z,0.00
2018-09-24T08:45:10.727Z,0.00
2018-09-24T08:46:10.658Z,0.00
2018-09-24T08:47:10.614Z,0.00
2018-09-24T08:48:10.665Z,0.00
2018-09-24T08:49:10.550Z,0.00
2018-09-24T08:50:10.466Z,0.00
2018-09-24T08:51:10.432Z,0.00
2018-09-24T08:52:10.384Z,0.00
2018-09-24T08:53:10.348Z,0.00
2018-09-24T08:54:10.398Z,5.63
2018-09-24T08:55:10.242Z,5.63
2018-09-24T08:56:10.184Z,5.63
2018-09-24T08:57:10.162Z,5.63
2018-09-24T08:58:10.112Z,5.63
2018-09-24T08:59:10.051Z,5.63
2018-09-24T09:00:10.113Z,11.25
2018-09-24T09:01:09.961Z,11.25
2018-09-24T09:02:09.925Z,11.25
2018-09-24T09:03:09.886Z,11.25
2018-09-24T09:04:09.821Z,11.25
2018-09-24T09:05:09.799Z,11.25
2018-09-24T09:06:09.839Z,16.88
2018-09-24T09:07:09.694Z,16.88
2018-09-24T09:08:09.707Z,16.88
2018-09-24T09:09:09.596Z,22.50
2018-09-24T09:10:09.553Z,22.50
2018-09-24T09:11:09.506Z,22.50
2018-09-24T09:12:09.559Z,22.50
2018-09-24T09:13:09.409Z,28.13
2018-09-24T09:14:09.364Z,28.13
2018-09-24T09:15:09.311Z,28.13
2018-09-24T09:16:09.321Z,33.75
2018-09-24T09:17:09.232Z,39.38
2018-09-24T09:18:09.274Z,50.63
2018-09-24T09:19:09.130Z,56.25
2018-09-24T09:20:09.087Z,50.63
2018-09-24T09:21:09.052Z,101.25
2018-09-24T09:22:08.996Z,84.38
2018-09-24T09:23:08.963Z,151.88
2018-09-24T09:24:09.092Z,320.63
2018-09-24T09:25:08.875Z,264.38
2018-09-24T09:26:08.812Z,129.38
2018-09-24T09:27:08.767Z,163.13
2018-09-24T09:28:08.712Z,230.63
2018-09-24T09:29:08.670Z,163.13
2018-09-24T09:30:08.745Z,101.25
2018-09-24T09:31:08.610Z,123.75
2018-09-24T09:32:08.542Z,286.88
2018-09-24T09:33:08.478Z,371.25
2018-09-24T09:34:08.453Z,236.25
2018-09-24T09:35:08.481Z,129.38
2018-09-24T09:36:08.454Z,101.25
2018-09-24T09:37:08.315Z,90.00
2018-09-24T09:38:08.256Z,123.75
2018-09-24T09:39:08.210Z,225.00
2018-09-24T09:40:08.215Z,219.38
2018-09-24T09:41:08.195Z,123.75
2018-09-24T09:42:08.183Z,112.50
2018-09-24T09:43:08.041Z,146.25
2018-09-24T09:44:07.998Z,343.13
2018-09-24T09:45:07.953Z,489.38
2018-09-24T09:46:07.918Z,326.25
2018-09-24T09:47:07.881Z,196.88
2018-09-24T09:48:07.920Z,163.13
2018-09-24T09:49:07.773Z,129.38
2018-09-24T09:50:07.728Z,129.38
2018-09-24T09:51:07.677Z,106.88
2018-09-24T09:52:07.647Z,230.63
2018-09-24T09:53:07.590Z,247.50
2018-09-24T09:54:07.652Z,185.63
2018-09-24T09:55:07.528Z,528.75
2018-09-24T09:56:07.471Z,466.88
2018-09-24T09:57:07.412Z,331.88
2018-09-24T09:58:07.388Z,511.88
2018-09-24T09:59:07.362Z,405.00
2018-09-24T10:00:07.384Z,365.63
2018-09-24T10:01:07.230Z,320.63
2018-09-24T10:02:07.187Z,247.50
2018-09-24T10:03:07.156Z,281.25
2018-09-24T10:04:07.125Z,275.63
2018-09-24T10:05:07.082Z,337.50
2018-09-24T10:06:07.181Z,292.50
2018-09-24T10:07:07.022Z,196.88
2018-09-24T10:08:06.943Z,191.25
2018-09-24T10:09:06.885Z,180.00
2018-09-24T10:10:06.852Z,551.25
2018-09-24T10:11:06.838Z,1006.88
2018-09-24T10:12:06.864Z,1226.25
2018-09-24T10:13:06.740Z,1378.13
2018-09-24T10:14:06.685Z,1456.88
2018-09-24T10:15:06.644Z,1434.38
2018-09-24T10:16:06.589Z,1451.25
2018-09-24T10:17:06.576Z,1485.00
2018-09-24T10:18:06.616Z,1501.88
2018-09-24T10:19:06.480Z,1496.25
2018-09-24T10:20:06.437Z,1473.75
2018-09-24T10:21:06.402Z,1451.25
2018-09-24T10:22:06.378Z,1316.25
2018-09-24T10:23:06.334Z,1305.00
2018-09-24T10:24:06.390Z,1462.50
2018-09-24T10:25:06.271Z,1563.75
2018-09-24T10:26:06.246Z,1485.00
2018-09-24T10:27:06.196Z,1456.88
2018-09-24T10:28:06.170Z,1501.88
2018-09-24T10:29:06.149Z,1479.38
2018-09-24T10:30:06.189Z,1445.63
2018-09-24T10:31:06.059Z,1445.63
2018-09-24T10:32:06.039Z,1485.00
2018-09-24T10:33:06.016Z,1569.38
2018-09-24T10:34:05.980Z,1546.88
2018-09-24T10:35:05.968Z,1400.63
2018-09-24T10:36:06.002Z,843.75
2018-09-24T10:37:05.878Z,253.13
2018-09-24T10:38:05.838Z,230.63
2018-09-24T10:39:05.816Z,219.38
2018-09-24T10:40:05.795Z,213.75
2018-09-24T10:41:05.748Z,213.75
2018-09-24T10:42:05.832Z,208.13
2018-09-24T10:43:05.672Z,208.13
2018-09-24T10:44:05.652Z,202.50
2018-09-24T10:45:05.616Z,202.50
2018-09-24T10:46:05.596Z,196.88
2018-09-24T10:47:05.545Z,196.88
2018-09-24T10:48:05.596Z,191.25
2018-09-24T10:49:05.450Z,185.63
2018-09-24T10:50:05.419Z,180.00
2018-09-24T10:51:05.382Z,174.38
2018-09-24T10:52:05.345Z,168.75
2018-09-24T10:53:05.405Z,163.13
2018-09-24T10:54:05.361Z,157.50
2018-09-24T10:55:05.236Z,157.50
2018-09-24T10:56:05.172Z,151.88
2018-09-24T10:57:05.161Z,151.88
2018-09-24T10:58:05.114Z,146.25
2018-09-24T10:59:05.057Z,146.25
2018-09-24T11:00:05.116Z,146.25
2018-09-24T11:01:04.979Z,146.25
2018-09-24T11:02:04.930Z,146.25
2018-09-24T11:03:04.891Z,146.25
2018-09-24T11:04:04.847Z,146.25
2018-09-24T11:05:04.844Z,146.25
2018-09-24T11:06:04.870Z,140.63
2018-09-24T11:07:04.728Z,140.63
2018-09-24T11:08:04.691Z,140.63
2018-09-24T11:09:04.654Z,140.63
2018-09-24T11:10:04.638Z,140.63
2018-09-24T11:11:04.583Z,140.63
2018-09-24T11:12:04.624Z,140.63
2018-09-24T11:13:04.516Z,140.63
2018-09-24T11:14:04.430Z,135.00
2018-09-24T11:15:04.428Z,135.00
2018-09-24T11:16:04.526Z,135.00
2018-09-24T11:17:04.445Z,135.00
2018-09-24T11:18:04.417Z,135.00
2018-09-24T11:19:04.223Z,135.00
2018-09-24T11:20:04.180Z,135.00
2018-09-24T11:21:04.165Z,135.00
2018-09-24T11:22:04.114Z,135.00
2018-09-24T11:23:04.063Z,135.00
2018-09-24T11:24:04.143Z,135.00
2018-09-24T11:25:03.974Z,135.00
2018-09-24T11:26:03.939Z,140.63
2018-09-24T11:27:03.892Z,135.00
2018-09-24T11:28:03.844Z,135.00
2018-09-24T11:29:03.828Z,135.00
2018-09-24T11:30:03.888Z,135.00
2018-09-24T11:31:03.726Z,135.00
2018-09-24T11:32:03.701Z,129.38
2018-09-24T11:33:03.660Z,129.38
2018-09-24T11:34:03.600Z,129.38
2018-09-24T11:35:03.566Z,129.38
2018-09-24T11:36:03.599Z,129.38
2018-09-24T11:37:03.486Z,129.38
2018-09-24T11:38:03.422Z,129.38
2018-09-24T11:39:03.385Z,129.38
2018-09-24T11:40:03.339Z,129.38
2018-09-24T11:41:03.295Z,129.38
2018-09-24T11:42:03.340Z,129.38
2018-09-24T11:43:03.202Z,129.38
2018-09-24T11:44:03.169Z,135.00
2018-09-24T11:45:03.134Z,129.38
2018-09-24T11:46:03.091Z,129.38
2018-09-24T11:47:03.118Z,129.38
2018-09-24T11:48:03.099Z,129.38
2018-09-24T11:49:02.957Z,129.38
2018-09-24T11:50:02.912Z,129.38
2018-09-24T11:51:02.873Z,129.38
2018-09-24T11:52:02.820Z,129.38
2018-09-24T11:53:02.782Z,129.38
2018-09-24T11:54:02.849Z,129.38
2018-09-24T11:55:02.699Z,123.75
2018-09-24T11:56:02.671Z,129.38
2018-09-24T11:57:02.607Z,123.75
2018-09-24T11:58:02.570Z,129.38
2018-09-24T11:59:02.532Z,129.38
2018-09-24T12:00:02.597Z,129.38
2018-09-24T12:01:02.439Z,129.38
2018-09-24T12:02:02.453Z,129.38
2018-09-24T12:03:02.366Z,129.38
2018-09-24T12:04:02.333Z,129.38
2018-09-24T12:05:02.281Z,123.75
2018-09-24T12:06:02.349Z,129.38
2018-09-24T12:07:02.198Z,123.75
2018-09-24T12:08:02.149Z,123.75
2018-09-24T12:09:02.109Z,123.75
2018-09-24T12:10:02.073Z,123.75
2018-09-24T12:11:02.029Z,123.75
2018-09-24T12:12:02.098Z,123.75
2018-09-24T12:13:01.941Z,123.75
2018-09-24T12:14:01.901Z,123.75
2018-09-24T12:15:01.873Z,123.75
2018-09-24T12:16:01.828Z,123.75
2018-09-24T12:17:01.781Z,123.75
2018-09-24T12:18:01.861Z,123.75
2018-09-24T12:19:01.725Z,123.75
2018-09-24T12:20:01.641Z,123.75
2018-09-24T12:21:01.605Z,123.75
2018-09-24T12:22:01.583Z,123.75
2018-09-24T12:23:01.520Z,118.13
2018-09-24T12:24:01.589Z,123.75
2018-09-24T12:25:01.454Z,123.75
2018-09-24T12:26:01.389Z,123.75
2018-09-24T12:27:01.353Z,123.75
2018-09-24T12:28:01.303Z,123.75
2018-09-24T12:29:01.272Z,118.13
2018-09-24T12:30:01.354Z,123.75
2018-09-24T12:31:01.193Z,123.75
2018-09-24T12:32:01.142Z,123.75
2018-09-24T12:33:01.098Z,123.75
2018-09-24T12:34:01.078Z,123.75
2018-09-24T12:35:01.022Z,123.75
2018-09-24T12:36:01.074Z,123.75
2018-09-24T12:37:00.953Z,123.75
2018-09-24T12:38:00.898Z,123.75
2018-09-24T12:39:00.848Z,123.75
2018-09-24T12:40:00.798Z,118.13
2018-09-24T12:41:00.763Z,118.13
2018-09-24T12:42:00.816Z,118.13
2018-09-24T12:43:00.679Z,118.13
2018-09-24T12:44:00.654Z,118.13
2018-09-24T12:45:00.617Z,118.13
2018-09-24T12:46:00.634Z,118.13
2018-09-24T12:47:00.535Z,123.75
2018-09-24T12:48:00.637Z,123.75
2018-09-24T12:49:00.422Z,118.13
2018-09-24T12:50:00.401Z,118.13
2018-09-24T12:51:00.421Z,118.13
2018-09-24T12:52:00.297Z,118.13
2018-09-24T12:53:00.270Z,118.13
2018-09-24T12:54:00.334Z,118.13
2018-09-24T12:55:00.192Z,118.13
2018-09-24T12:56:00.147Z,118.13
2018-09-24T12:57:00.094Z,118.13
2018-09-24T12:58:00.084Z,118.13
2018-09-24T12:59:00.020Z,118.13
2018-09-24T13:00:00.065Z,118.13
2018-09-24T13:00:59.936Z,118.13
2018-09-24T13:01:59.881Z,118.13